Terminal Aerodrome Forecast
Issued by NWS

Home | Current Version | Previous Version | Text Only | Print | Product List | Glossary On
Versions: 1 2 3 4 5 6 7 8 9 10 11 12 13 14 15 16 17 18 19 20 21 22
000
FTUS43 KEAX 231000 AAA
TAFMKC
TAF AMD
KMKC 231006Z 2310/2406 17006KT P6SM VCSH OVC016
     FM232000 31007KT 4SM BR VCSH OVC008
     FM240000 33012G20KT 3SM -SHRA OVC008=

USA.gov is the U.S. government's official web portal to all federal, state and local government web resources and services.